createdAt,value
2018-12-10T00:00:02.996Z,44.10
2018-12-10T00:05:06.762Z,43.70
2018-12-10T00:10:10.066Z,43.91
2018-12-10T00:15:13.416Z,43.76
2018-12-10T00:20:16.730Z,43.53
2018-12-10T00:25:20.049Z,43.19
2018-12-10T00:30:23.402Z,43.00
2018-12-10T00:35:26.727Z,43.00
2018-12-10T00:40:30.509Z,42.95
2018-12-10T00:45:33.829Z,43.04
2018-12-10T00:50:37.238Z,43.39
2018-12-10T00:55:40.524Z,43.47
2018-12-10T01:00:43.805Z,43.28
2018-12-10T01:05:47.098Z,43.47
2018-12-10T01:10:50.392Z,43.71
2018-12-10T01:15:53.693Z,43.76
2018-12-10T01:20:56.970Z,43.59
2018-12-10T01:26:00.245Z,43.13
2018-12-10T01:31:03.557Z,43.17
2018-12-10T01:36:06.838Z,43.52
2018-12-10T01:41:10.114Z,43.55
2018-12-10T01:46:13.418Z,43.52
2018-12-10T01:51:16.714Z,43.60
2018-12-10T01:56:19.998Z,43.89
2018-12-10T02:01:23.317Z,43.86
2018-12-10T02:06:26.771Z,44.02
2018-12-10T02:11:30.050Z,44.14
2018-12-10T02:16:33.337Z,43.74
2018-12-10T02:21:36.623Z,43.96
2018-12-10T02:26:39.893Z,43.86
2018-12-10T02:31:43.806Z,43.64
2018-12-10T02:36:47.087Z,43.85
2018-12-10T02:41:50.366Z,44.05
2018-12-10T02:46:53.846Z,44.34
2018-12-10T02:51:57.147Z,44.28
2018-12-10T02:57:00.488Z,44.33
2018-12-10T03:02:03.854Z,43.88
2018-12-10T03:07:07.173Z,44.23
2018-12-10T03:12:10.453Z,44.18
2018-12-10T03:17:13.829Z,43.99
2018-12-10T03:22:17.121Z,44.10
2018-12-10T03:27:20.399Z,44.18
2018-12-10T03:32:23.672Z,44.36
2018-12-10T03:37:26.958Z,44.03
2018-12-10T03:42:30.243Z,44.29
2018-12-10T03:47:33.526Z,44.06
2018-12-10T03:52:36.810Z,43.64
2018-12-10T03:57:40.109Z,43.41
2018-12-10T04:02:43.401Z,43.56
2018-12-10T04:07:46.678Z,43.80
2018-12-10T04:12:49.969Z,43.96
2018-12-10T04:17:53.246Z,44.15
2018-12-10T04:22:56.543Z,44.08
2018-12-10T04:27:59.842Z,44.53
2018-12-10T04:33:03.301Z,44.33
2018-12-10T04:38:06.639Z,44.43
2018-12-10T04:43:09.921Z,44.81
2018-12-10T04:48:13.206Z,45.03
2018-12-10T04:53:16.498Z,45.14
2018-12-10T04:58:19.806Z,44.87
2018-12-10T05:03:23.086Z,44.63
2018-12-10T05:08:26.570Z,44.55
2018-12-10T05:13:29.855Z,44.28
2018-12-10T05:18:33.133Z,44.74
2018-12-10T05:23:36.418Z,44.37
2018-12-10T05:28:39.701Z,44.86
2018-12-10T05:33:43.009Z,44.88
2018-12-10T05:38:46.319Z,44.65
2018-12-10T05:43:49.614Z,44.81
2018-12-10T05:48:52.894Z,44.52
2018-12-10T05:53:56.172Z,44.68
2018-12-10T05:58:59.449Z,44.31
2018-12-10T06:04:02.726Z,44.57
2018-12-10T06:09:07.004Z,44.22
2018-12-10T06:14:10.285Z,44.61
2018-12-10T06:19:13.566Z,44.47
2018-12-10T06:24:16.851Z,44.44
2018-12-10T06:29:20.138Z,44.55
2018-12-10T06:34:23.421Z,44.47
2018-12-10T06:39:26.698Z,44.78
2018-12-10T06:44:29.982Z,43.96
2018-12-10T06:49:33.273Z,43.98
2018-12-10T06:54:36.553Z,44.15
2018-12-10T06:59:39.845Z,43.98
2018-12-10T07:04:43.121Z,43.89
2018-12-10T07:09:46.398Z,44.23
2018-12-10T07:14:49.685Z,44.21
2018-12-10T07:19:52.970Z,44.52
2018-12-10T07:24:56.250Z,44.24
2018-12-10T07:29:59.522Z,44.22
2018-12-10T07:35:02.959Z,43.95
2018-12-10T07:40:06.742Z,43.99
2018-12-10T07:45:10.146Z,43.98
2018-12-10T07:50:13.433Z,43.69
2018-12-10T07:55:16.719Z,44.04
2018-12-10T08:00:20.011Z,44.13
2018-12-10T08:05:23.294Z,44.00
2018-12-10T08:10:26.591Z,44.54
2018-12-10T08:15:29.917Z,41.83
2018-12-10T08:20:33.237Z,50.42
2018-12-10T08:25:36.565Z,45.17
2018-12-10T08:30:39.863Z,45.45
2018-12-10T08:35:43.182Z,39.53
2018-12-10T08:40:46.558Z,37.65
2018-12-10T08:45:49.858Z,36.86
2018-12-10T08:50:53.151Z,36.93
2018-12-10T08:55:56.466Z,37.23
2018-12-10T09:00:59.748Z,37.12
2018-12-10T09:06:03.035Z,37.38
2018-12-10T09:11:06.318Z,37.65
2018-12-10T09:16:09.614Z,37.62
2018-12-10T09:21:12.898Z,37.93
2018-12-10T09:26:16.190Z,38.25
2018-12-10T09:31:19.486Z,38.29
2018-12-10T09:36:22.768Z,38.86
2018-12-10T09:41:26.058Z,38.84
2018-12-10T09:46:29.358Z,39.42
2018-12-10T09:51:32.641Z,39.76
2018-12-10T09:56:35.917Z,39.51
2018-12-10T10:01:39.453Z,40.15
2018-12-10T10:06:43.931Z,40.42
2018-12-10T10:11:47.397Z,40.86
2018-12-10T10:16:50.682Z,40.59
2018-12-10T10:21:53.984Z,40.71
2018-12-10T10:26:57.282Z,40.69
2018-12-10T10:32:00.571Z,41.06
2018-12-10T10:37:03.858Z,40.39
2018-12-10T10:42:07.147Z,40.70
2018-12-10T10:47:10.438Z,40.79
2018-12-10T10:52:13.729Z,40.68
2018-12-10T10:57:17.017Z,40.79
2018-12-10T11:02:25.799Z,41.44
2018-12-10T11:07:29.078Z,41.94
2018-12-10T11:12:32.370Z,41.93
2018-12-10T11:17:35.650Z,42.86
2018-12-10T11:22:40.403Z,43.38
2018-12-10T11:27:43.894Z,44.12
2018-12-10T11:32:47.179Z,44.76
2018-12-10T11:37:50.465Z,44.91
2018-12-10T11:42:53.752Z,45.03
2018-12-10T11:47:57.038Z,45.37
2018-12-10T11:53:00.341Z,45.28
2018-12-10T11:58:03.627Z,45.11
2018-12-10T12:03:06.911Z,45.44
2018-12-10T12:08:10.192Z,45.29
2018-12-10T12:13:13.489Z,45.35
2018-12-10T12:18:16.782Z,44.35
2018-12-10T12:23:20.088Z,44.84
2018-12-10T12:28:23.401Z,44.75
2018-12-10T12:33:26.722Z,45.04
2018-12-10T12:38:30.006Z,45.39
2018-12-10T12:43:33.310Z,45.42
2018-12-10T12:48:37.463Z,45.37
2018-12-10T12:53:40.746Z,46.00
2018-12-10T12:58:44.030Z,46.24
2018-12-10T13:03:47.338Z,46.52
2018-12-10T13:08:50.624Z,46.28
2018-12-10T13:13:53.929Z,46.30
2018-12-10T13:18:57.349Z,46.56
2018-12-10T13:24:00.686Z,46.95
2018-12-10T13:29:04.143Z,46.54
2018-12-10T13:34:07.494Z,46.95
2018-12-10T13:39:10.782Z,47.32
2018-12-10T13:44:14.062Z,35.57
2018-12-10T13:49:17.342Z,35.78
2018-12-10T13:54:20.671Z,36.44
2018-12-10T13:59:23.960Z,37.12
2018-12-10T14:04:31.390Z,35.29
2018-12-10T14:09:34.759Z,34.36
2018-12-10T14:14:38.094Z,34.77
2018-12-10T14:19:41.430Z,35.78
2018-12-10T14:24:44.813Z,36.32
2018-12-10T14:29:48.229Z,37.44
2018-12-10T14:34:51.598Z,38.03
2018-12-10T14:39:54.930Z,38.66
2018-12-10T14:44:58.241Z,39.36
2018-12-10T14:50:01.557Z,39.72
2018-12-10T14:55:06.002Z,39.73
2018-12-10T15:00:10.680Z,40.13
2018-12-10T15:05:14.063Z,40.39
2018-12-10T15:10:23.111Z,40.79
2018-12-10T15:15:22.756Z,40.95
2018-12-10T15:20:26.074Z,41.56
2018-12-10T15:25:29.416Z,41.51
2018-12-10T15:30:32.754Z,41.86
2018-12-10T15:35:36.144Z,42.35
2018-12-10T15:40:39.502Z,42.07
2018-12-10T15:51:14.323Z,42.30
2018-12-10T15:56:17.658Z,42.72
2018-12-10T16:01:20.994Z,42.67
2018-12-10T16:56:53.211Z,44.88
2018-12-10T17:41:19.967Z,47.04
2018-12-10T17:46:23.311Z,46.64
2018-12-10T17:51:26.635Z,46.27
2018-12-10T17:56:30.083Z,46.01
2018-12-10T18:54:35.145Z,44.72
2018-12-10T18:59:38.725Z,44.81
2018-12-10T19:04:42.048Z,44.49
2018-12-10T19:09:45.401Z,44.22
2018-12-10T19:14:49.306Z,44.03
2018-12-10T19:19:52.638Z,44.12
2018-12-10T19:24:55.960Z,44.18
2018-12-10T19:29:59.293Z,43.52
2018-12-10T19:35:02.640Z,43.61
2018-12-10T19:45:25.557Z,43.63
2018-12-10T19:50:28.884Z,43.02
2018-12-10T19:55:32.405Z,43.35
2018-12-10T20:00:35.765Z,43.22
2018-12-10T20:33:47.954Z,43.76
2018-12-10T20:38:51.292Z,44.16
2018-12-10T20:43:54.604Z,44.15
2018-12-10T20:48:57.912Z,43.87
2018-12-10T20:54:01.216Z,44.29
2018-12-10T20:59:04.540Z,43.54
2018-12-10T21:04:07.968Z,42.89
2018-12-10T21:09:11.266Z,42.80
2018-12-10T21:14:15.161Z,42.03
2018-12-10T21:19:19.096Z,41.96
2018-12-10T21:24:22.464Z,41.25
2018-12-10T21:29:25.797Z,40.90
2018-12-10T21:34:29.204Z,40.93
2018-12-10T21:39:32.929Z,41.32
2018-12-10T21:44:36.221Z,41.68
2018-12-10T21:49:39.528Z,41.90
2018-12-10T21:54:42.936Z,42.14
2018-12-10T21:59:46.233Z,41.85
2018-12-10T22:04:49.619Z,42.01
2018-12-10T22:09:52.928Z,42.26
2018-12-10T22:14:56.241Z,42.62
2018-12-10T22:19:59.545Z,42.00
2018-12-10T22:25:02.919Z,41.76
2018-12-10T22:30:06.768Z,41.94
2018-12-10T22:35:10.060Z,42.09
2018-12-10T22:40:13.361Z,42.59
2018-12-10T22:45:16.665Z,42.22
2018-12-10T22:50:19.966Z,42.25
2018-12-10T22:55:23.281Z,42.40
2018-12-10T23:00:31.997Z,42.10
2018-12-10T23:05:35.374Z,42.59
2018-12-10T23:10:38.675Z,42.10
2018-12-10T23:15:42.045Z,42.57
2018-12-10T23:20:45.349Z,42.35
2018-12-10T23:25:48.637Z,42.88
2018-12-10T23:30:51.940Z,42.81
2018-12-10T23:35:55.257Z,42.85
2018-12-10T23:40:58.573Z,42.71
2018-12-10T23:46:01.888Z,42.70
2018-12-10T23:51:05.314Z,42.64
2018-12-10T23:56:08.617Z,42.67
